首页
METAR-TAF:

METAR-TAF

机场 :

巴里, 意大利

纬度: 41-08N, 经度: 016-47E, 海拔: 34米

当前天气观测

该预报发布于32分钟前的17:20 UTC
风速2节,风向多变
温度 20°C
湿度 53%
气压 1012 hPa
能见度10公里或以上
1500米以下无云,无积雨云

METAR: LIBD 241720Z VRB02KT CAVOK 20/10 Q1012

时间: 19:52 (17:52 UTC)

预报

该预报发布于52分钟前的17:00 UTC
预报有效从24日的 18点(UTC)到 25日的 18点(UTC)
风速12节,风向北转东北
能见度10公里或以上
少量云层高于4000英尺
成为
从 24日的 18点(UTC)到 24日的 20点(UTC)
风速8节,风向西
成为
从 25日的 10点(UTC)到 25日的 12点(UTC)
风速10节,风向东北

TAF: LIBD 241700Z 2418/2518 02012KT 9999 FEW040 BECMG 2418/2420 26008KT BECMG 2510/2512 05010KT

超过4000个机场的气象观测和天气预报(METAR&TAF报告)。

可查询的气象台以黄色和红色小点在地图上表示。

将鼠标移到小点上方,可查看气象台名称。

然后点击查看天气观测和预报。

如需切换地图:点击带黑十字的绿色按钮放大地图;点击带横线的绿色按钮缩小地图;或者点击绿色箭头查看邻近地区的地图。


METAR-TAF: